createdAt,value
2022-09-11T00:01:40.527Z,100732.03
2022-09-11T00:04:07.985Z,100730.53
2022-09-11T00:06:35.013Z,100736.44
2022-09-11T00:09:07.480Z,100726.78
2022-09-11T00:11:41.729Z,100730.59
2022-09-11T00:14:14.345Z,100731.34
2022-09-11T00:16:47.210Z,100727.97
2022-09-11T00:19:20.074Z,100738.16
2022-09-11T00:21:50.542Z,100728.63
2022-09-11T00:24:17.816Z,100728.28
2022-09-11T00:26:47.586Z,100725.38
2022-09-11T00:29:14.569Z,100737.84
2022-09-11T00:31:41.855Z,100725.16
2022-09-11T00:34:09.692Z,100728.28
2022-09-11T00:36:39.248Z,100730.72
2022-09-11T00:39:06.890Z,100733.53
2022-09-11T00:41:45.060Z,100731.44
2022-09-11T00:44:17.971Z,100737.25
2022-09-11T00:47:01.803Z,100729.75
2022-09-11T00:49:34.772Z,100735.84
2022-09-11T00:52:42.069Z,100738.97
2022-09-11T00:55:16.220Z,100733.13
2022-09-11T00:57:56.203Z,100735.25
2022-09-11T01:00:23.262Z,100737.72
2022-09-11T01:02:54.637Z,100737.84
2022-09-11T01:05:26.145Z,100739.97
2022-09-11T01:07:56.780Z,100734.22
2022-09-11T01:11:23.708Z,100731.75
2022-09-11T01:14:34.680Z,100732.00
2022-09-11T01:17:57.722Z,100732.00
2022-09-11T01:21:34.387Z,100734.75
2022-09-11T01:24:32.245Z,100738.19
2022-09-11T01:27:48.247Z,100732.78
2022-09-11T01:30:32.543Z,100729.09
2022-09-11T01:33:34.936Z,100737.09
2022-09-11T01:36:34.349Z,100740.69
2022-09-11T01:39:05.390Z,100747.75
2022-09-11T01:41:48.672Z,100751.03
2022-09-11T01:44:49.103Z,100744.97
2022-09-11T01:47:21.216Z,100746.63
2022-09-11T01:50:04.336Z,100747.09
2022-09-11T01:52:50.826Z,100745.13
2022-09-11T01:55:39.522Z,100748.72
2022-09-11T01:58:30.454Z,100741.38
2022-09-11T02:01:18.577Z,100745.38
2022-09-11T02:04:24.566Z,100748.50
2022-09-11T02:07:10.486Z,100753.78
2022-09-11T02:09:56.673Z,100756.09
2022-09-11T02:12:43.651Z,100748.75
2022-09-11T02:15:16.107Z,100749.75
2022-09-11T02:18:07.092Z,100744.03
2022-09-11T02:20:36.353Z,100748.31
2022-09-11T02:23:03.785Z,100757.47
2022-09-11T02:25:31.810Z,100758.16
2022-09-11T02:27:59.583Z,100749.31
2022-09-11T02:30:26.579Z,100749.97
2022-09-11T02:32:56.046Z,100755.88
2022-09-11T02:35:45.552Z,100749.84
2022-09-11T02:38:53.453Z,100754.56
2022-09-11T02:42:00.772Z,100753.94
2022-09-11T02:44:57.040Z,100755.22
2022-09-11T02:48:16.504Z,100757.66
2022-09-11T02:51:33.192Z,100758.81
2022-09-11T02:54:53.584Z,100767.97
2022-09-11T02:57:39.395Z,100763.56
2022-09-11T03:00:10.600Z,100761.59
2022-09-11T03:02:43.273Z,100769.75
2022-09-11T03:05:11.966Z,100767.09
2022-09-11T03:07:39.291Z,100773.84
2022-09-11T03:10:08.567Z,100778.91
2022-09-11T03:12:36.755Z,100769.28
2022-09-11T03:15:06.063Z,100776.63
2022-09-11T03:17:33.836Z,100778.59
2022-09-11T03:20:00.870Z,100774.66
2022-09-11T03:22:28.063Z,100778.75
2022-09-11T03:24:55.055Z,100785.03
2022-09-11T03:27:23.807Z,100778.19
2022-09-11T03:29:50.753Z,100783.97
2022-09-11T03:32:17.740Z,100776.59
2022-09-11T03:34:44.780Z,100782.34
2022-09-11T03:37:11.721Z,100784.47
2022-09-11T03:39:38.923Z,100791.84
2022-09-11T03:42:07.507Z,100795.78
2022-09-11T03:44:34.735Z,100805.09
2022-09-11T03:47:01.673Z,100798.38
2022-09-11T03:49:28.819Z,100806.38
2022-09-11T03:51:57.067Z,100810.81
2022-09-11T03:54:24.034Z,100812.41
2022-09-11T03:56:50.967Z,100814.03
2022-09-11T03:59:19.622Z,100818.91
2022-09-11T04:01:50.940Z,100824.78
2022-09-11T04:04:18.523Z,100819.91
2022-09-11T04:06:45.484Z,100827.53
2022-09-11T04:09:12.468Z,100823.81
2022-09-11T04:11:40.268Z,100827.31
2022-09-11T04:14:08.317Z,100828.59
2022-09-11T04:16:36.045Z,100832.91
2022-09-11T04:19:04.191Z,100828.69
2022-09-11T04:21:34.426Z,100828.63
2022-09-11T04:24:02.409Z,100831.41
2022-09-11T04:26:32.353Z,100834.59
2022-09-11T04:29:01.333Z,100830.50
2022-09-11T04:31:28.863Z,100841.16
2022-09-11T04:33:57.996Z,100846.91
2022-09-11T04:36:27.277Z,100847.75
2022-09-11T04:39:00.266Z,100855.09
2022-09-11T04:41:29.054Z,100848.06
2022-09-11T04:44:04.876Z,100851.19
2022-09-11T04:46:33.421Z,100852.34
2022-09-11T04:49:00.585Z,100851.19
2022-09-11T04:51:33.228Z,100861.47
2022-09-11T04:54:02.060Z,100854.28
2022-09-11T04:56:34.928Z,100860.31
2022-09-11T04:59:13.701Z,100859.00
2022-09-11T05:01:41.640Z,100852.09
2022-09-11T05:04:10.560Z,100856.53
2022-09-11T05:06:38.099Z,100855.72
2022-09-11T05:09:09.717Z,100858.63
2022-09-11T05:11:39.446Z,100861.88
2022-09-11T05:14:07.724Z,100868.09
2022-09-11T05:16:38.045Z,100863.00
2022-09-11T05:19:05.926Z,100865.56
2022-09-11T05:21:34.253Z,100869.38
2022-09-11T05:24:04.515Z,100871.03
2022-09-11T05:26:38.826Z,100864.91
2022-09-11T05:29:16.637Z,100870.28
2022-09-11T05:31:44.011Z,100874.84
2022-09-11T05:34:11.335Z,100879.22
2022-09-11T05:36:38.392Z,100885.91
2022-09-11T05:39:05.559Z,100884.44
2022-09-11T05:41:32.668Z,100893.41
2022-09-11T05:44:00.080Z,100898.78
2022-09-11T05:46:27.237Z,100896.97
2022-09-11T05:48:54.398Z,100902.00
2022-09-11T05:51:22.517Z,100904.78
2022-09-11T05:53:56.854Z,100910.94
2022-09-11T05:56:26.450Z,100906.94
2022-09-11T05:58:53.922Z,100910.81
2022-09-11T06:01:28.964Z,100920.94
2022-09-11T06:03:58.072Z,100927.34
2022-09-11T06:06:25.916Z,100923.19
2022-09-11T06:08:53.490Z,100928.28
2022-09-11T06:11:22.298Z,100932.34
2022-09-11T06:13:50.693Z,100934.44
2022-09-11T06:16:24.225Z,100944.91
2022-09-11T06:18:54.420Z,100940.75
2022-09-11T06:21:26.922Z,100950.09
2022-09-11T06:23:54.329Z,100948.59
2022-09-11T06:26:27.215Z,100956.97
2022-09-11T06:28:54.902Z,100963.50
2022-09-11T06:31:26.962Z,100959.00
2022-09-11T06:33:54.439Z,100958.88
2022-09-11T06:36:27.236Z,100962.25
2022-09-11T06:38:57.449Z,100971.22
2022-09-11T06:41:26.548Z,100978.66
2022-09-11T06:43:54.096Z,100972.88
2022-09-11T06:46:25.519Z,100975.41
2022-09-11T06:48:54.037Z,100971.59
2022-09-11T06:51:23.772Z,100967.75
2022-09-11T06:53:59.425Z,100966.84
2022-09-11T06:56:32.918Z,100973.47
2022-09-11T06:59:00.536Z,100976.06
2022-09-11T07:01:28.632Z,100976.28
2022-09-11T07:03:57.171Z,100980.03
2022-09-11T07:06:29.028Z,100981.22
2022-09-11T07:09:03.067Z,100978.41
2022-09-11T07:11:35.556Z,100983.06
2022-09-11T07:14:06.390Z,100981.44
2022-09-11T07:16:34.941Z,100976.44
2022-09-11T07:19:04.180Z,100976.44
2022-09-11T07:21:31.993Z,100982.84
2022-09-11T07:24:00.756Z,100979.81
2022-09-11T07:26:30.435Z,100988.06
2022-09-11T07:28:59.917Z,100975.84
2022-09-11T07:31:33.146Z,100980.19
2022-09-11T07:34:02.946Z,100987.97
2022-09-11T07:36:35.013Z,100991.72
2022-09-11T07:39:04.243Z,100984.38
2022-09-11T07:41:31.702Z,100985.28
2022-09-11T07:44:01.029Z,100988.44
2022-09-11T07:46:31.372Z,100993.78
2022-09-11T07:48:59.066Z,100993.47
2022-09-11T07:51:27.083Z,100996.97
2022-09-11T07:53:59.574Z,101001.50
2022-09-11T07:56:28.677Z,100999.06
2022-09-11T07:58:58.526Z,100999.66
2022-09-11T08:01:30.806Z,101001.25
2022-09-11T08:04:07.025Z,101000.78
2022-09-11T08:06:38.618Z,101007.59
2022-09-11T08:09:18.592Z,100998.34
2022-09-11T08:11:48.871Z,101004.94
2022-09-11T08:14:17.787Z,101009.56
2022-09-11T08:16:45.357Z,101011.16
2022-09-11T08:19:20.801Z,101011.22
2022-09-11T08:21:48.489Z,101016.19
2022-09-11T08:24:17.891Z,101021.81
2022-09-11T08:26:48.801Z,101020.47
2022-09-11T08:29:18.354Z,101019.50
2022-09-11T08:31:45.454Z,101025.94
2022-09-11T08:34:12.623Z,101036.41
2022-09-11T08:36:40.006Z,101035.59
2022-09-11T08:39:07.164Z,101035.69
2022-09-11T08:41:53.756Z,101037.41
2022-09-11T08:44:47.790Z,101031.78
2022-09-11T08:47:27.736Z,101040.75
2022-09-11T08:50:09.478Z,101037.56
2022-09-11T08:52:38.064Z,101037.41
2022-09-11T08:55:06.940Z,101038.13
2022-09-11T08:58:05.322Z,101038.47
2022-09-11T09:00:51.288Z,101036.41
2022-09-11T09:03:50.205Z,101047.81
2022-09-11T09:07:21.705Z,101047.19
2022-09-11T09:10:15.391Z,101047.19
2022-09-11T09:13:26.423Z,101046.97
2022-09-11T09:16:32.565Z,101047.44
2022-09-11T09:19:34.808Z,101051.09
2022-09-11T09:22:43.884Z,101062.38
2022-09-11T09:25:18.104Z,101050.22
2022-09-11T09:27:51.372Z,101055.78
2022-09-11T09:30:27.592Z,101052.78
2022-09-11T09:33:43.117Z,101054.06
2022-09-11T09:36:21.022Z,101056.69
2022-09-11T09:38:49.157Z,101059.50
2022-09-11T09:41:50.586Z,101052.38
2022-09-11T09:45:14.548Z,101050.34
2022-09-11T09:47:47.943Z,101052.03
2022-09-11T09:50:30.564Z,101058.72
2022-09-11T09:53:48.691Z,101063.28
2022-09-11T09:56:21.292Z,101062.25
2022-09-11T09:59:23.447Z,101061.25
2022-09-11T10:01:55.191Z,101062.75
2022-09-11T10:04:30.301Z,101061.19
2022-09-11T10:07:21.864Z,101069.44
2022-09-11T10:10:03.327Z,101065.56
2022-09-11T10:12:31.728Z,101068.81
2022-09-11T10:15:04.014Z,101072.31
2022-09-11T10:17:35.260Z,101067.97
2022-09-11T10:20:19.552Z,101064.16
2022-09-11T10:22:46.968Z,101068.13
2022-09-11T10:25:15.302Z,101066.19
2022-09-11T10:28:05.012Z,101070.06
2022-09-11T10:30:42.330Z,101061.09
2022-09-11T10:33:41.298Z,101062.03
2022-09-11T10:36:12.025Z,101068.06
2022-09-11T10:38:45.362Z,101075.13
2022-09-11T10:41:27.687Z,101075.56
2022-09-11T10:44:16.260Z,101072.16
2022-09-11T10:46:46.575Z,101076.75
2022-09-11T10:49:22.871Z,101083.00
2022-09-11T10:52:09.019Z,101083.59
2022-09-11T10:55:08.715Z,101079.38
2022-09-11T10:58:06.231Z,101078.72
2022-09-11T11:00:35.845Z,101070.94
2022-09-11T11:03:24.098Z,101068.06
2022-09-11T11:06:39.304Z,101078.94
2022-09-11T11:09:31.290Z,101084.44
2022-09-11T11:12:40.418Z,101077.91
2022-09-11T11:15:45.956Z,101073.53
2022-09-11T11:19:24.046Z,101069.00
2022-09-11T11:22:22.543Z,101077.00
2022-09-11T11:25:05.497Z,101087.03
2022-09-11T11:28:29.781Z,101080.03
2022-09-11T11:31:20.792Z,101083.00
2022-09-11T11:34:51.237Z,101087.44
2022-09-11T11:37:34.382Z,101088.50
2022-09-11T11:40:24.145Z,101090.00
2022-09-11T11:43:27.540Z,101095.84
2022-09-11T11:46:26.800Z,101093.72
2022-09-11T11:49:10.688Z,101089.94
2022-09-11T11:52:34.087Z,101091.94
2022-09-11T11:55:28.987Z,101083.28
2022-09-11T11:59:03.831Z,101086.09
2022-09-11T12:01:57.735Z,101082.56
2022-09-11T12:05:16.855Z,101084.72
2022-09-11T12:07:47.363Z,101087.88
2022-09-11T12:10:40.694Z,101095.56
2022-09-11T12:13:17.385Z,101092.47
2022-09-11T12:16:29.108Z,101101.91
2022-09-11T12:19:25.481Z,101089.44
2022-09-11T12:21:55.161Z,101090.16
2022-09-11T12:24:59.104Z,101092.06
2022-09-11T12:27:36.419Z,101089.25
2022-09-11T12:30:30.869Z,101090.81
2022-09-11T12:33:02.320Z,101095.94
2022-09-11T12:35:51.976Z,101082.47
2022-09-11T12:39:14.499Z,101084.38
2022-09-11T12:41:42.194Z,101083.53
2022-09-11T12:44:47.005Z,101096.00
2022-09-11T12:47:34.844Z,101094.69
2022-09-11T12:50:28.376Z,101095.63
2022-09-11T12:53:02.417Z,101095.19
2022-09-11T12:55:51.094Z,101098.81
2022-09-11T12:58:18.936Z,101096.38
2022-09-11T13:01:08.829Z,101096.31
2022-09-11T13:03:59.537Z,101093.94
2022-09-11T13:07:02.633Z,101089.69
2022-09-11T13:09:40.027Z,101093.34
2022-09-11T13:12:25.728Z,101089.16
2022-09-11T13:14:56.521Z,101087.22
2022-09-11T13:17:32.716Z,101077.34
2022-09-11T13:20:05.371Z,101088.19
2022-09-11T13:22:34.673Z,101089.31
2022-09-11T13:25:17.394Z,101072.50
2022-09-11T13:28:01.517Z,101079.88
2022-09-11T13:30:29.247Z,101076.72
2022-09-11T13:33:22.711Z,101075.88
2022-09-11T13:35:51.852Z,101069.16
2022-09-11T13:38:30.494Z,101067.69
2022-09-11T13:41:18.310Z,101073.25
2022-09-11T13:43:58.167Z,101066.75
2022-09-11T13:46:32.780Z,101069.13
2022-09-11T13:49:06.725Z,101076.53
2022-09-11T13:51:35.780Z,101069.75
2022-09-11T13:54:15.788Z,101074.91
2022-09-11T13:57:12.445Z,101084.97
2022-09-11T13:59:44.799Z,101083.75
2022-09-11T14:02:47.829Z,101087.72
2022-09-11T14:05:28.084Z,101099.16
2022-09-11T14:08:32.915Z,101085.00
2022-09-11T14:11:11.725Z,101080.34
2022-09-11T14:14:06.106Z,101083.00
2022-09-11T14:16:51.950Z,101083.28
2022-09-11T14:19:31.557Z,101087.16
2022-09-11T14:21:59.884Z,101084.69
2022-09-11T14:24:38.263Z,101085.34
2022-09-11T14:27:31.320Z,101090.78
2022-09-11T14:29:58.735Z,101082.66
2022-09-11T14:32:39.083Z,101083.34
2022-09-11T14:35:10.459Z,101082.47
2022-09-11T14:37:49.616Z,101077.88
2022-09-11T14:40:19.997Z,101089.94
2022-09-11T14:42:48.761Z,101083.88
2022-09-11T14:45:24.582Z,101076.69
2022-09-11T14:47:52.297Z,101087.69
2022-09-11T14:50:19.727Z,101080.88
2022-09-11T14:52:46.930Z,101078.50
2022-09-11T14:55:19.559Z,101085.38
2022-09-11T14:57:47.795Z,101082.59
2022-09-11T15:00:19.001Z,101082.66
2022-09-11T15:02:46.971Z,101087.84
2022-09-11T15:05:21.687Z,101090.06
2022-09-11T15:07:49.165Z,101087.16
2022-09-11T15:10:16.615Z,101088.63
2022-09-11T15:12:44.603Z,101085.53
2022-09-11T15:15:11.702Z,101091.41
2022-09-11T15:17:39.037Z,101087.88
2022-09-11T15:20:09.233Z,101089.81
2022-09-11T15:22:38.885Z,101093.63
2022-09-11T15:25:07.454Z,101090.38
2022-09-11T15:27:34.743Z,101082.59
2022-09-11T15:30:01.847Z,101081.09
2022-09-11T15:32:29.646Z,101089.31
2022-09-11T15:34:56.690Z,101087.19
2022-09-11T15:37:24.701Z,101097.81
2022-09-11T15:39:51.963Z,101090.78
2022-09-11T15:42:19.593Z,101090.69
2022-09-11T15:44:47.974Z,101086.56
2022-09-11T15:47:15.087Z,101087.72
2022-09-11T15:49:48.037Z,101090.31
2022-09-11T15:52:15.086Z,101089.66
2022-09-11T15:54:42.959Z,101081.66
2022-09-11T15:57:09.985Z,101088.41
2022-09-11T15:59:37.190Z,101095.75
2022-09-11T16:02:04.871Z,101087.72
2022-09-11T16:04:32.370Z,101090.16
2022-09-11T16:06:59.998Z,101090.56
2022-09-11T16:09:32.141Z,101088.47
2022-09-11T16:12:02.039Z,101098.00
2022-09-11T16:14:38.472Z,101087.00
2022-09-11T16:17:08.455Z,101085.19
2022-09-11T16:19:36.782Z,101073.66
2022-09-11T16:22:07.075Z,101078.38
2022-09-11T16:24:37.881Z,101082.16
2022-09-11T16:27:10.316Z,101077.91
2022-09-11T16:30:15.658Z,101082.38
2022-09-11T16:32:29.084Z,101077.84
2022-09-11T16:34:59.632Z,101079.59
2022-09-11T16:37:28.363Z,101082.97
2022-09-11T16:39:55.725Z,101072.13
2022-09-11T16:42:23.446Z,101078.00
2022-09-11T16:44:50.779Z,101089.59
2022-09-11T16:47:18.171Z,101080.09
2022-09-11T16:50:05.809Z,101090.44
2022-09-11T16:52:33.812Z,101077.84
2022-09-11T16:55:00.947Z,101085.56
2022-09-11T16:57:27.999Z,101087.16
2022-09-11T16:59:54.991Z,101088.16
2022-09-11T17:02:22.020Z,101091.88
2022-09-11T17:04:49.150Z,101090.06
2022-09-11T17:07:16.133Z,101093.50
2022-09-11T17:09:43.795Z,101091.66
2022-09-11T17:12:18.001Z,101098.38
2022-09-11T17:14:45.286Z,101098.53
2022-09-11T17:17:12.219Z,101088.31
2022-09-11T17:19:39.714Z,101096.19
2022-09-11T17:22:07.361Z,101099.25
2022-09-11T17:24:35.222Z,101099.13
2022-09-11T17:27:02.857Z,101103.13
2022-09-11T17:29:29.902Z,101101.31
2022-09-11T17:32:16.661Z,101096.06
2022-09-11T17:34:43.820Z,101101.13
2022-09-11T17:37:12.157Z,101105.69
2022-09-11T17:39:42.443Z,101109.13
2022-09-11T17:42:14.063Z,101102.78
2022-09-11T17:44:42.316Z,101105.34
2022-09-11T17:47:09.509Z,101108.69
2022-09-11T17:49:36.429Z,101108.34
2022-09-11T17:52:04.438Z,101110.59
2022-09-11T17:54:31.768Z,101101.28
2022-09-11T17:56:59.159Z,101108.03
2022-09-11T17:59:29.067Z,101106.66
2022-09-11T18:01:56.022Z,101110.06
2022-09-11T18:04:23.009Z,101108.25
2022-09-11T18:06:51.166Z,101109.19
2022-09-11T18:09:19.909Z,101111.53
2022-09-11T18:11:53.989Z,101111.34
2022-09-11T18:14:20.984Z,101116.59
2022-09-11T18:16:48.551Z,101118.47
2022-09-11T18:24:32.269Z,101116.41
2022-09-11T18:27:01.132Z,101110.69
2022-09-11T18:29:30.332Z,101115.34
2022-09-11T18:31:59.871Z,101113.94
2022-09-11T18:34:29.401Z,101120.59
2022-09-11T18:36:56.415Z,101127.59
2022-09-11T18:39:23.844Z,101134.56
2022-09-11T18:41:52.840Z,101133.53
2022-09-11T18:44:25.035Z,101132.22
2022-09-11T18:46:56.028Z,101134.13
2022-09-11T18:49:23.481Z,101140.97
2022-09-11T18:51:51.893Z,101137.66
2022-09-11T18:54:21.312Z,101146.63
2022-09-11T18:56:50.720Z,101145.97
2022-09-11T18:59:19.440Z,101142.38
2022-09-11T19:01:46.528Z,101145.03
2022-09-11T19:04:15.247Z,101144.66
2022-09-11T19:06:42.336Z,101145.69
2022-09-11T19:09:12.735Z,101144.75
2022-09-11T19:11:40.918Z,101146.94
2022-09-11T19:14:12.352Z,101158.88
2022-09-11T19:16:40.245Z,101159.50
2022-09-11T19:19:08.259Z,101166.63
2022-09-11T19:21:38.429Z,101170.38
2022-09-11T19:24:06.823Z,101171.78
2022-09-11T19:26:39.120Z,101167.53
2022-09-11T19:29:09.891Z,101167.91
2022-09-11T19:31:39.331Z,101171.16
2022-09-11T19:34:11.858Z,101178.53
2022-09-11T19:36:41.133Z,101159.47
2022-09-11T19:39:10.356Z,101166.66
2022-09-11T19:41:39.963Z,101170.16
2022-09-11T19:44:13.706Z,101167.34
2022-09-11T19:46:43.128Z,101173.13
2022-09-11T19:49:11.250Z,101174.81
2022-09-11T19:51:42.985Z,101179.44
2022-09-11T19:54:14.420Z,101183.56
2022-09-11T19:56:47.404Z,101180.78
2022-09-11T19:59:14.484Z,101183.63
2022-09-11T20:01:41.891Z,101189.06
2022-09-11T20:04:11.426Z,101183.81
2022-09-11T20:06:39.283Z,101190.56
2022-09-11T20:09:29.906Z,101192.19
2022-09-11T20:11:54.089Z,101191.03
2022-09-11T20:14:21.126Z,101186.44
2022-09-11T20:16:48.794Z,101184.94
2022-09-11T20:19:17.285Z,101193.97
2022-09-11T20:21:44.360Z,101190.69
2022-09-11T20:24:11.353Z,101194.44
2022-09-11T20:26:38.412Z,101196.94
2022-09-11T20:29:13.927Z,101197.63
2022-09-11T20:31:49.757Z,101192.88
2022-09-11T20:34:19.970Z,101191.06
2022-09-11T20:36:47.664Z,101194.84
2022-09-11T20:39:15.510Z,101187.16
2022-09-11T20:41:44.063Z,101181.91
2022-09-11T20:44:11.852Z,101193.72
2022-09-11T20:46:39.178Z,101197.03
2022-09-11T20:49:06.230Z,101188.19
2022-09-11T20:51:34.804Z,101192.78
2022-09-11T20:54:02.596Z,101190.00
2022-09-11T20:56:31.296Z,101193.41
2022-09-11T20:59:00.602Z,101194.22
2022-09-11T21:01:34.763Z,101196.88
2022-09-11T21:04:04.688Z,101194.41
2022-09-11T21:06:35.466Z,101202.78
2022-09-11T21:09:11.167Z,101197.53
2022-09-11T21:11:42.588Z,101196.56
2022-09-11T21:14:13.014Z,101189.88
2022-09-11T21:16:40.458Z,101200.84
2022-09-11T21:19:09.144Z,101190.19
2022-09-11T21:21:40.450Z,101198.72
2022-09-11T21:24:13.714Z,101202.81
2022-09-11T21:26:42.444Z,101196.59
2022-09-11T21:29:13.438Z,101192.16
2022-09-11T21:31:40.614Z,101196.09
2022-09-11T21:34:07.744Z,101190.69
2022-09-11T21:36:36.743Z,101191.69
2022-09-11T21:39:05.260Z,101194.78
2022-09-11T21:41:32.206Z,101198.56
2022-09-11T21:43:59.320Z,101194.78
2022-09-11T21:46:26.418Z,101188.06
2022-09-11T21:48:53.537Z,101193.44
2022-09-11T21:51:21.112Z,101190.81
2022-09-11T21:53:55.907Z,101185.41
2022-09-11T21:56:30.474Z,101187.53
2022-09-11T21:58:58.799Z,101190.13
2022-09-11T22:01:28.577Z,101194.38
2022-09-11T22:03:55.965Z,101198.31
2022-09-11T22:06:24.760Z,101188.66
2022-09-11T22:08:53.512Z,101196.03
2022-09-11T22:11:21.426Z,101192.75
2022-09-11T22:13:49.600Z,101190.00
2022-09-11T22:16:19.549Z,101191.63
2022-09-11T22:18:55.191Z,101190.28
2022-09-11T22:21:22.738Z,101191.75
2022-09-11T22:23:50.212Z,101190.59
2022-09-11T22:26:21.560Z,101193.88
2022-09-11T22:28:48.818Z,101195.69
2022-09-11T22:31:21.783Z,101195.81
2022-09-11T22:33:48.829Z,101187.63
2022-09-11T22:36:30.617Z,101191.75
2022-09-11T22:38:59.129Z,101189.47
2022-09-11T22:41:27.523Z,101190.97
2022-09-11T22:43:54.434Z,101185.03
2022-09-11T22:46:21.552Z,101188.81
2022-09-11T22:48:49.143Z,101188.16
2022-09-11T22:51:16.783Z,101189.66
2022-09-11T22:53:44.073Z,101197.53
2022-09-11T22:56:13.810Z,101192.44
2022-09-11T22:58:41.645Z,101185.41
2022-09-11T23:01:12.573Z,101191.28
2022-09-11T23:03:39.684Z,101194.88
2022-09-11T23:06:36.115Z,101191.44
2022-09-11T23:09:13.195Z,101195.06
2022-09-11T23:11:40.463Z,101188.50
2022-09-11T23:14:13.317Z,101188.50
2022-09-11T23:16:41.773Z,101183.94
2022-09-11T23:19:13.971Z,101183.44
2022-09-11T23:21:42.848Z,101182.94
2022-09-11T23:24:14.457Z,101188.84
2022-09-11T23:26:41.792Z,101181.66
2022-09-11T23:29:09.140Z,101182.13
2022-09-11T23:31:37.279Z,101180.16
2022-09-11T23:34:09.329Z,101172.78
2022-09-11T23:36:36.680Z,101177.53
2022-09-11T23:39:04.500Z,101183.44
2022-09-11T23:41:32.157Z,101181.78
2022-09-11T23:43:59.825Z,101180.16
2022-09-11T23:46:27.260Z,101184.44
2022-09-11T23:48:54.295Z,101183.09
2022-09-11T23:51:22.390Z,101184.59
2022-09-11T23:53:51.671Z,101188.22
2022-09-11T23:56:19.459Z,101185.91
2022-09-11T23:58:46.650Z,101177.75
